sensor_id;sensor_type;location;lat;lon;timestamp;P1;durP1;ratioP1;P2;durP2;ratioP2
10596;SDS011;5346;48.766;8.674;2023-03-08T00:02:02;11.07;;;5.43;;
10596;SDS011;5346;48.766;8.674;2023-03-08T00:04:36;9.47;;;5.07;;
10596;SDS011;5346;48.766;8.674;2023-03-08T00:07:11;7.80;;;5.23;;
10596;SDS011;5346;48.766;8.674;2023-03-08T00:09:45;8.67;;;4.83;;
10596;SDS011;5346;48.766;8.674;2023-03-08T00:12:19;8.63;;;5.30;;
10596;SDS011;5346;48.766;8.674;2023-03-08T00:14:48;8.20;;;5.33;;
10596;SDS011;5346;48.766;8.674;2023-03-08T00:17:22;10.23;;;5.77;;
10596;SDS011;5346;48.766;8.674;2023-03-08T00:19:56;8.63;;;5.00;;
10596;SDS011;5346;48.766;8.674;2023-03-08T00:22:34;9.47;;;5.33;;
10596;SDS011;5346;48.766;8.674;2023-03-08T00:25:09;8.03;;;5.10;;
10596;SDS011;5346;48.766;8.674;2023-03-08T00:27:37;9.33;;;5.67;;
10596;SDS011;5346;48.766;8.674;2023-03-08T00:30:13;8.90;;;5.90;;
10596;SDS011;5346;48.766;8.674;2023-03-08T00:32:41;9.90;;;5.00;;
10596;SDS011;5346;48.766;8.674;2023-03-08T00:35:15;8.90;;;5.60;;
10596;SDS011;5346;48.766;8.674;2023-03-08T00:37:51;8.87;;;5.37;;
10596;SDS011;5346;48.766;8.674;2023-03-08T00:40:26;9.50;;;5.17;;
10596;SDS011;5346;48.766;8.674;2023-03-08T00:42:54;9.93;;;5.57;;
10596;SDS011;5346;48.766;8.674;2023-03-08T00:45:27;8.33;;;5.00;;
10596;SDS011;5346;48.766;8.674;2023-03-08T00:48:01;9.57;;;5.50;;
10596;SDS011;5346;48.766;8.674;2023-03-08T00:50:36;8.97;;;5.33;;
10596;SDS011;5346;48.766;8.674;2023-03-08T00:53:04;10.77;;;5.60;;
10596;SDS011;5346;48.766;8.674;2023-03-08T00:55:38;13.33;;;5.67;;
10596;SDS011;5346;48.766;8.674;2023-03-08T00:58:14;9.60;;;5.47;;
10596;SDS011;5346;48.766;8.674;2023-03-08T01:00:48;8.40;;;5.40;;
10596;SDS011;5346;48.766;8.674;2023-03-08T01:03:22;8.40;;;5.03;;
10596;SDS011;5346;48.766;8.674;2023-03-08T01:05:57;18.83;;;5.93;;
10596;SDS011;5346;48.766;8.674;2023-03-08T01:08:36;9.60;;;5.20;;
10596;SDS011;5346;48.766;8.674;2023-03-08T01:11:18;9.27;;;6.13;;
10596;SDS011;5346;48.766;8.674;2023-03-08T01:13:53;9.00;;;5.37;;
10596;SDS011;5346;48.766;8.674;2023-03-08T01:16:28;13.30;;;6.33;;
10596;SDS011;5346;48.766;8.674;2023-03-08T01:18:57;8.83;;;5.77;;
10596;SDS011;5346;48.766;8.674;2023-03-08T01:21:32;9.17;;;5.57;;
10596;SDS011;5346;48.766;8.674;2023-03-08T01:23:59;12.57;;;5.63;;
10596;SDS011;5346;48.766;8.674;2023-03-08T01:26:34;7.57;;;5.10;;
10596;SDS011;5346;48.766;8.674;2023-03-08T01:29:07;8.17;;;5.67;;
10596;SDS011;5346;48.766;8.674;2023-03-08T01:31:41;10.63;;;5.43;;
10596;SDS011;5346;48.766;8.674;2023-03-08T01:34:10;9.17;;;5.43;;
10596;SDS011;5346;48.766;8.674;2023-03-08T01:36:44;10.53;;;5.83;;
10596;SDS011;5346;48.766;8.674;2023-03-08T01:39:19;11.70;;;6.27;;
10596;SDS011;5346;48.766;8.674;2023-03-08T01:41:47;11.87;;;5.33;;
10596;SDS011;5346;48.766;8.674;2023-03-08T01:44:21;8.10;;;5.23;;
10596;SDS011;5346;48.766;8.674;2023-03-08T01:46:55;11.40;;;5.30;;
10596;SDS011;5346;48.766;8.674;2023-03-08T01:52:07;9.63;;;6.00;;
10596;SDS011;5346;48.766;8.674;2023-03-08T01:54:54;9.13;;;6.17;;
10596;SDS011;5346;48.766;8.674;2023-03-08T01:57:32;11.60;;;6.87;;
10596;SDS011;5346;48.766;8.674;2023-03-08T02:02:49;14.90;;;7.40;;
10596;SDS011;5346;48.766;8.674;2023-03-08T02:05:32;13.50;;;7.77;;
10596;SDS011;5346;48.766;8.674;2023-03-08T02:08:14;18.43;;;8.80;;
10596;SDS011;5346;48.766;8.674;2023-03-08T02:10:42;15.33;;;7.87;;
10596;SDS011;5346;48.766;8.674;2023-03-08T02:13:09;12.87;;;7.90;;
10596;SDS011;5346;48.766;8.674;2023-03-08T02:15:44;10.50;;;6.57;;
10596;SDS011;5346;48.766;8.674;2023-03-08T02:18:12;14.47;;;7.57;;
10596;SDS011;5346;48.766;8.674;2023-03-08T02:20:45;12.50;;;7.57;;
10596;SDS011;5346;48.766;8.674;2023-03-08T02:23:13;14.43;;;7.70;;
10596;SDS011;5346;48.766;8.674;2023-03-08T02:28:27;16.87;;;8.27;;
10596;SDS011;5346;48.766;8.674;2023-03-08T02:30:55;12.37;;;8.23;;
10596;SDS011;5346;48.766;8.674;2023-03-08T02:33:29;13.70;;;7.67;;
10596;SDS011;5346;48.766;8.674;2023-03-08T02:36:04;13.40;;;7.70;;
10596;SDS011;5346;48.766;8.674;2023-03-08T02:38:39;13.13;;;7.23;;
10596;SDS011;5346;48.766;8.674;2023-03-08T02:41:13;10.77;;;6.53;;
10596;SDS011;5346;48.766;8.674;2023-03-08T02:43:47;11.07;;;7.30;;
10596;SDS011;5346;48.766;8.674;2023-03-08T02:46:21;13.00;;;7.57;;
10596;SDS011;5346;48.766;8.674;2023-03-08T02:48:55;12.53;;;7.50;;
10596;SDS011;5346;48.766;8.674;2023-03-08T02:51:29;12.10;;;6.97;;
10596;SDS011;5346;48.766;8.674;2023-03-08T02:54:04;13.27;;;7.60;;
10596;SDS011;5346;48.766;8.674;2023-03-08T02:56:42;11.60;;;6.50;;
10596;SDS011;5346;48.766;8.674;2023-03-08T02:59:09;12.63;;;7.50;;
10596;SDS011;5346;48.766;8.674;2023-03-08T03:01:43;13.77;;;7.33;;
10596;SDS011;5346;48.766;8.674;2023-03-08T03:04:24;14.53;;;7.03;;
10596;SDS011;5346;48.766;8.674;2023-03-08T03:07:02;11.03;;;6.77;;
10596;SDS011;5346;48.766;8.674;2023-03-08T03:09:36;12.73;;;6.80;;
10596;SDS011;5346;48.766;8.674;2023-03-08T03:12:10;17.43;;;7.87;;
10596;SDS011;5346;48.766;8.674;2023-03-08T03:14:44;11.03;;;7.07;;
10596;SDS011;5346;48.766;8.674;2023-03-08T03:17:18;13.53;;;7.60;;
10596;SDS011;5346;48.766;8.674;2023-03-08T03:19:46;13.47;;;7.67;;
10596;SDS011;5346;48.766;8.674;2023-03-08T03:22:23;14.27;;;7.57;;
10596;SDS011;5346;48.766;8.674;2023-03-08T03:24:56;13.50;;;6.83;;
10596;SDS011;5346;48.766;8.674;2023-03-08T03:27:24;13.57;;;8.10;;
10596;SDS011;5346;48.766;8.674;2023-03-08T03:29:58;11.90;;;6.60;;
10596;SDS011;5346;48.766;8.674;2023-03-08T03:32:26;13.27;;;7.67;;
10596;SDS011;5346;48.766;8.674;2023-03-08T03:35:00;12.37;;;7.53;;
10596;SDS011;5346;48.766;8.674;2023-03-08T03:37:28;14.03;;;7.53;;
10596;SDS011;5346;48.766;8.674;2023-03-08T03:40:03;12.83;;;6.90;;
10596;SDS011;5346;48.766;8.674;2023-03-08T03:42:37;12.93;;;7.60;;
10596;SDS011;5346;48.766;8.674;2023-03-08T03:45:12;10.47;;;6.77;;
10596;SDS011;5346;48.766;8.674;2023-03-08T03:47:46;12.83;;;6.93;;
10596;SDS011;5346;48.766;8.674;2023-03-08T03:50:20;11.00;;;6.80;;
10596;SDS011;5346;48.766;8.674;2023-03-08T03:52:54;12.60;;;6.90;;
10596;SDS011;5346;48.766;8.674;2023-03-08T03:55:28;12.77;;;6.70;;
10596;SDS011;5346;48.766;8.674;2023-03-08T03:57:55;12.93;;;6.90;;
10596;SDS011;5346;48.766;8.674;2023-03-08T04:00:29;17.07;;;7.13;;
10596;SDS011;5346;48.766;8.674;2023-03-08T04:02:56;13.90;;;7.60;;
10596;SDS011;5346;48.766;8.674;2023-03-08T04:05:37;10.70;;;7.20;;
10596;SDS011;5346;48.766;8.674;2023-03-08T04:08:11;11.07;;;6.87;;
10596;SDS011;5346;48.766;8.674;2023-03-08T04:10:45;11.33;;;6.07;;
10596;SDS011;5346;48.766;8.674;2023-03-08T04:13:19;12.80;;;7.80;;
10596;SDS011;5346;48.766;8.674;2023-03-08T04:15:47;11.63;;;6.87;;
10596;SDS011;5346;48.766;8.674;2023-03-08T04:18:21;12.03;;;7.50;;
10596;SDS011;5346;48.766;8.674;2023-03-08T04:20:49;10.20;;;5.83;;
10596;SDS011;5346;48.766;8.674;2023-03-08T04:23:23;13.87;;;6.67;;
10596;SDS011;5346;48.766;8.674;2023-03-08T04:25:51;12.10;;;6.33;;
10596;SDS011;5346;48.766;8.674;2023-03-08T04:28:25;9.03;;;6.07;;
10596;SDS011;5346;48.766;8.674;2023-03-08T04:30:59;13.27;;;6.53;;
10596;SDS011;5346;48.766;8.674;2023-03-08T04:34:12;10.50;;;6.30;;
10596;SDS011;5346;48.766;8.674;2023-03-08T04:36:46;11.87;;;6.47;;
10596;SDS011;5346;48.766;8.674;2023-03-08T04:39:20;8.83;;;5.77;;
10596;SDS011;5346;48.766;8.674;2023-03-08T04:41:47;10.93;;;5.63;;
10596;SDS011;5346;48.766;8.674;2023-03-08T04:44:21;9.87;;;5.63;;
10596;SDS011;5346;48.766;8.674;2023-03-08T04:46:55;8.43;;;5.87;;
10596;SDS011;5346;48.766;8.674;2023-03-08T04:49:29;8.13;;;5.47;;
10596;SDS011;5346;48.766;8.674;2023-03-08T04:52:03;9.27;;;6.03;;
10596;SDS011;5346;48.766;8.674;2023-03-08T04:54:37;9.20;;;5.70;;
10596;SDS011;5346;48.766;8.674;2023-03-08T04:57:05;11.00;;;5.67;;
10596;SDS011;5346;48.766;8.674;2023-03-08T04:59:39;9.90;;;5.43;;
10596;SDS011;5346;48.766;8.674;2023-03-08T05:02:08;10.83;;;6.33;;
10596;SDS011;5346;48.766;8.674;2023-03-08T05:04:49;11.20;;;6.47;;
10596;SDS011;5346;48.766;8.674;2023-03-08T05:07:23;9.67;;;6.00;;
10596;SDS011;5346;48.766;8.674;2023-03-08T05:09:57;12.90;;;6.33;;
10596;SDS011;5346;48.766;8.674;2023-03-08T05:12:31;9.87;;;6.30;;
10596;SDS011;5346;48.766;8.674;2023-03-08T05:15:05;10.83;;;5.90;;
10596;SDS011;5346;48.766;8.674;2023-03-08T05:17:39;10.73;;;6.20;;
10596;SDS011;5346;48.766;8.674;2023-03-08T05:20:13;9.17;;;5.87;;
10596;SDS011;5346;48.766;8.674;2023-03-08T05:22:41;10.53;;;6.60;;
10596;SDS011;5346;48.766;8.674;2023-03-08T05:25:24;10.17;;;5.47;;
10596;SDS011;5346;48.766;8.674;2023-03-08T05:27:59;9.07;;;5.87;;
10596;SDS011;5346;48.766;8.674;2023-03-08T05:30:33;9.67;;;6.10;;
10596;SDS011;5346;48.766;8.674;2023-03-08T05:33:01;11.40;;;5.63;;
10596;SDS011;5346;48.766;8.674;2023-03-08T05:35:35;8.37;;;5.80;;
10596;SDS011;5346;48.766;8.674;2023-03-08T05:38:09;9.53;;;5.87;;
10596;SDS011;5346;48.766;8.674;2023-03-08T05:40:43;8.57;;;6.07;;
10596;SDS011;5346;48.766;8.674;2023-03-08T05:43:10;8.83;;;5.27;;
10596;SDS011;5346;48.766;8.674;2023-03-08T05:48:42;8.80;;;5.83;;
10596;SDS011;5346;48.766;8.674;2023-03-08T05:51:17;11.40;;;6.20;;
10596;SDS011;5346;48.766;8.674;2023-03-08T05:53:51;8.00;;;5.33;;
10596;SDS011;5346;48.766;8.674;2023-03-08T05:56:25;7.97;;;5.80;;
10596;SDS011;5346;48.766;8.674;2023-03-08T05:58:53;11.97;;;6.30;;
10596;SDS011;5346;48.766;8.674;2023-03-08T06:01:27;7.93;;;5.53;;
10596;SDS011;5346;48.766;8.674;2023-03-08T06:04:03;9.03;;;5.50;;
10596;SDS011;5346;48.766;8.674;2023-03-08T06:10:11;9.33;;;5.47;;
10596;SDS011;5346;48.766;8.674;2023-03-08T06:12:52;14.47;;;5.87;;
10596;SDS011;5346;48.766;8.674;2023-03-08T06:15:19;9.33;;;6.37;;
10596;SDS011;5346;48.766;8.674;2023-03-08T06:17:58;11.87;;;5.87;;
10596;SDS011;5346;48.766;8.674;2023-03-08T06:20:26;9.13;;;5.60;;
10596;SDS011;5346;48.766;8.674;2023-03-08T06:22:59;9.00;;;5.33;;
10596;SDS011;5346;48.766;8.674;2023-03-08T06:25:27;10.47;;;6.10;;
10596;SDS011;5346;48.766;8.674;2023-03-08T06:28:02;10.77;;;5.87;;
10596;SDS011;5346;48.766;8.674;2023-03-08T06:30:29;9.20;;;4.97;;
10596;SDS011;5346;48.766;8.674;2023-03-08T06:33:03;9.23;;;6.20;;
10596;SDS011;5346;48.766;8.674;2023-03-08T06:35:38;9.60;;;5.73;;
10596;SDS011;5346;48.766;8.674;2023-03-08T06:38:05;8.93;;;5.50;;
10596;SDS011;5346;48.766;8.674;2023-03-08T06:40:39;10.13;;;5.97;;
10596;SDS011;5346;48.766;8.674;2023-03-08T06:43:07;9.07;;;5.93;;
10596;SDS011;5346;48.766;8.674;2023-03-08T06:45:41;8.03;;;5.37;;
10596;SDS011;5346;48.766;8.674;2023-03-08T06:48:09;9.03;;;5.73;;
10596;SDS011;5346;48.766;8.674;2023-03-08T06:50:43;8.40;;;5.00;;
10596;SDS011;5346;48.766;8.674;2023-03-08T06:53:17;7.03;;;5.20;;
10596;SDS011;5346;48.766;8.674;2023-03-08T06:55:51;10.97;;;6.03;;
10596;SDS011;5346;48.766;8.674;2023-03-08T06:58:19;8.77;;;5.60;;
10596;SDS011;5346;48.766;8.674;2023-03-08T07:01:00;8.30;;;5.03;;
10596;SDS011;5346;48.766;8.674;2023-03-08T07:03:35;8.63;;;5.70;;
10596;SDS011;5346;48.766;8.674;2023-03-08T07:06:09;7.67;;;5.10;;
10596;SDS011;5346;48.766;8.674;2023-03-08T07:08:44;8.30;;;5.60;;
10596;SDS011;5346;48.766;8.674;2023-03-08T07:11:18;7.73;;;5.23;;
10596;SDS011;5346;48.766;8.674;2023-03-08T07:13:52;6.97;;;4.60;;
10596;SDS011;5346;48.766;8.674;2023-03-08T07:16:26;7.57;;;5.13;;
10596;SDS011;5346;48.766;8.674;2023-03-08T07:19:01;7.33;;;4.83;;
10596;SDS011;5346;48.766;8.674;2023-03-08T07:21:28;7.33;;;4.77;;
10596;SDS011;5346;48.766;8.674;2023-03-08T07:24:02;7.23;;;4.87;;
10596;SDS011;5346;48.766;8.674;2023-03-08T07:26:30;8.87;;;5.20;;
10596;SDS011;5346;48.766;8.674;2023-03-08T07:29:04;8.60;;;5.47;;
10596;SDS011;5346;48.766;8.674;2023-03-08T07:31:33;8.50;;;5.77;;
10596;SDS011;5346;48.766;8.674;2023-03-08T07:34:07;8.63;;;5.37;;
10596;SDS011;5346;48.766;8.674;2023-03-08T07:36:41;9.20;;;5.97;;
10596;SDS011;5346;48.766;8.674;2023-03-08T07:39:15;8.73;;;5.90;;
10596;SDS011;5346;48.766;8.674;2023-03-08T07:41:43;8.47;;;5.83;;
10596;SDS011;5346;48.766;8.674;2023-03-08T07:44:17;10.33;;;6.10;;
10596;SDS011;5346;48.766;8.674;2023-03-08T07:46:51;11.20;;;6.30;;
10596;SDS011;5346;48.766;8.674;2023-03-08T07:49:19;13.03;;;6.90;;
10596;SDS011;5346;48.766;8.674;2023-03-08T07:51:53;9.70;;;6.10;;
10596;SDS011;5346;48.766;8.674;2023-03-08T07:54:21;12.53;;;6.67;;
10596;SDS011;5346;48.766;8.674;2023-03-08T07:56:55;10.43;;;6.77;;
10596;SDS011;5346;48.766;8.674;2023-03-08T07:59:23;12.30;;;7.50;;
10596;SDS011;5346;48.766;8.674;2023-03-08T08:01:57;15.00;;;8.07;;
10596;SDS011;5346;48.766;8.674;2023-03-08T08:04:25;10.33;;;7.30;;
10596;SDS011;5346;48.766;8.674;2023-03-08T08:07:13;11.73;;;7.63;;
10596;SDS011;5346;48.766;8.674;2023-03-08T08:09:42;12.10;;;7.77;;
10596;SDS011;5346;48.766;8.674;2023-03-08T08:12:16;13.43;;;8.53;;
10596;SDS011;5346;48.766;8.674;2023-03-08T08:14:44;12.63;;;8.13;;
10596;SDS011;5346;48.766;8.674;2023-03-08T08:17:19;13.37;;;8.60;;
10596;SDS011;5346;48.766;8.674;2023-03-08T08:19:53;12.73;;;8.40;;
10596;SDS011;5346;48.766;8.674;2023-03-08T08:22:27;14.37;;;9.13;;
10596;SDS011;5346;48.766;8.674;2023-03-08T08:24:55;16.07;;;9.57;;
10596;SDS011;5346;48.766;8.674;2023-03-08T08:27:30;14.13;;;9.10;;
10596;SDS011;5346;48.766;8.674;2023-03-08T08:30:04;14.17;;;8.53;;
10596;SDS011;5346;48.766;8.674;2023-03-08T08:32:39;14.90;;;9.43;;
10596;SDS011;5346;48.766;8.674;2023-03-08T08:35:07;17.67;;;9.63;;
10596;SDS011;5346;48.766;8.674;2023-03-08T08:37:35;18.93;;;9.50;;
10596;SDS011;5346;48.766;8.674;2023-03-08T08:40:09;14.23;;;9.20;;
10596;SDS011;5346;48.766;8.674;2023-03-08T08:42:37;15.43;;;9.17;;
10596;SDS011;5346;48.766;8.674;2023-03-08T08:45:11;14.20;;;8.80;;
10596;SDS011;5346;48.766;8.674;2023-03-08T08:47:39;16.13;;;9.20;;
10596;SDS011;5346;48.766;8.674;2023-03-08T08:50:14;13.57;;;9.50;;
10596;SDS011;5346;48.766;8.674;2023-03-08T08:52:48;15.47;;;9.10;;
10596;SDS011;5346;48.766;8.674;2023-03-08T08:55:16;17.00;;;9.13;;
10596;SDS011;5346;48.766;8.674;2023-03-08T08:57:50;13.87;;;9.07;;
10596;SDS011;5346;48.766;8.674;2023-03-08T09:00:18;13.97;;;9.30;;
10596;SDS011;5346;48.766;8.674;2023-03-08T09:02:46;12.83;;;8.30;;
10596;SDS011;5346;48.766;8.674;2023-03-08T09:05:26;14.67;;;9.57;;
10596;SDS011;5346;48.766;8.674;2023-03-08T09:08:00;12.73;;;8.63;;
10596;SDS011;5346;48.766;8.674;2023-03-08T09:10:29;13.20;;;8.73;;
10596;SDS011;5346;48.766;8.674;2023-03-08T09:13:04;13.27;;;9.03;;
10596;SDS011;5346;48.766;8.674;2023-03-08T09:15:33;12.60;;;8.90;;
10596;SDS011;5346;48.766;8.674;2023-03-08T09:18:08;13.37;;;8.80;;
10596;SDS011;5346;48.766;8.674;2023-03-08T09:20:42;13.20;;;9.10;;
10596;SDS011;5346;48.766;8.674;2023-03-08T09:23:16;12.87;;;8.30;;
10596;SDS011;5346;48.766;8.674;2023-03-08T09:25:56;13.33;;;8.57;;
10596;SDS011;5346;48.766;8.674;2023-03-08T09:28:34;13.43;;;8.97;;
10596;SDS011;5346;48.766;8.674;2023-03-08T09:31:09;11.97;;;7.73;;
10596;SDS011;5346;48.766;8.674;2023-03-08T09:33:48;12.60;;;6.40;;
10596;SDS011;5346;48.766;8.674;2023-03-08T09:36:19;9.83;;;6.57;;
10596;SDS011;5346;48.766;8.674;2023-03-08T09:38:54;8.73;;;5.60;;
10596;SDS011;5346;48.766;8.674;2023-03-08T09:44:03;5.47;;;3.40;;
10596;SDS011;5346;48.766;8.674;2023-03-08T09:46:58;5.53;;;3.20;;
10596;SDS011;5346;48.766;8.674;2023-03-08T09:49:46;4.37;;;2.47;;
10596;SDS011;5346;48.766;8.674;2023-03-08T09:55:01;2.23;;;1.67;;
10596;SDS011;5346;48.766;8.674;2023-03-08T09:57:35;3.67;;;1.83;;
10596;SDS011;5346;48.766;8.674;2023-03-08T10:00:20;2.60;;;1.87;;
10596;SDS011;5346;48.766;8.674;2023-03-08T10:03:04;2.23;;;1.50;;
10596;SDS011;5346;48.766;8.674;2023-03-08T10:08:32;3.23;;;1.90;;
10596;SDS011;5346;48.766;8.674;2023-03-08T10:11:24;2.93;;;1.60;;
10596;SDS011;5346;48.766;8.674;2023-03-08T10:14:29;2.47;;;1.60;;
10596;SDS011;5346;48.766;8.674;2023-03-08T10:17:02;2.03;;;1.43;;
10596;SDS011;5346;48.766;8.674;2023-03-08T10:19:58;1.97;;;1.43;;
10596;SDS011;5346;48.766;8.674;2023-03-08T10:22:38;1.70;;;1.40;;
10596;SDS011;5346;48.766;8.674;2023-03-08T10:25:22;2.20;;;1.70;;
10596;SDS011;5346;48.766;8.674;2023-03-08T10:28:02;1.93;;;1.50;;
10596;SDS011;5346;48.766;8.674;2023-03-08T10:30:56;1.97;;;1.37;;
10596;SDS011;5346;48.766;8.674;2023-03-08T10:33:33;2.43;;;1.67;;
10596;SDS011;5346;48.766;8.674;2023-03-08T10:36:15;1.83;;;1.33;;
10596;SDS011;5346;48.766;8.674;2023-03-08T10:39:05;1.93;;;1.37;;
10596;SDS011;5346;48.766;8.674;2023-03-08T10:41:42;3.37;;;1.60;;
10596;SDS011;5346;48.766;8.674;2023-03-08T10:44:26;1.63;;;1.50;;
10596;SDS011;5346;48.766;8.674;2023-03-08T10:47:25;1.50;;;1.13;;
10596;SDS011;5346;48.766;8.674;2023-03-08T10:50:16;1.97;;;1.20;;
10596;SDS011;5346;48.766;8.674;2023-03-08T10:52:46;1.50;;;1.40;;
10596;SDS011;5346;48.766;8.674;2023-03-08T10:55:25;1.87;;;1.30;;
10596;SDS011;5346;48.766;8.674;2023-03-08T10:58:01;1.80;;;1.40;;
10596;SDS011;5346;48.766;8.674;2023-03-08T11:00:41;4.23;;;1.40;;
10596;SDS011;5346;48.766;8.674;2023-03-08T11:03:19;1.60;;;1.13;;
10596;SDS011;5346;48.766;8.674;2023-03-08T11:08:34;1.37;;;1.27;;
10596;SDS011;5346;48.766;8.674;2023-03-08T11:11:11;1.83;;;1.13;;
10596;SDS011;5346;48.766;8.674;2023-03-08T11:13:41;1.73;;;1.40;;
10596;SDS011;5346;48.766;8.674;2023-03-08T11:22:35;1.33;;;1.23;;
10596;SDS011;5346;48.766;8.674;2023-03-08T11:25:17;1.80;;;1.57;;
10596;SDS011;5346;48.766;8.674;2023-03-08T11:30:45;3.20;;;1.43;;
10596;SDS011;5346;48.766;8.674;2023-03-08T11:34:06;2.90;;;1.63;;
10596;SDS011;5346;48.766;8.674;2023-03-08T11:39:42;3.10;;;1.70;;
10596;SDS011;5346;48.766;8.674;2023-03-08T11:48:11;1.80;;;1.40;;
10596;SDS011;5346;48.766;8.674;2023-03-08T11:51:03;1.67;;;1.50;;
10596;SDS011;5346;48.766;8.674;2023-03-08T11:54:04;2.13;;;1.40;;
10596;SDS011;5346;48.766;8.674;2023-03-08T11:59:32;2.10;;;1.50;;
10596;SDS011;5346;48.766;8.674;2023-03-08T12:04:52;1.67;;;1.33;;
10596;SDS011;5346;48.766;8.674;2023-03-08T12:07:38;1.80;;;1.40;;
10596;SDS011;5346;48.766;8.674;2023-03-08T12:12:58;4.00;;;1.40;;
10596;SDS011;5346;48.766;8.674;2023-03-08T12:15:48;1.90;;;1.70;;
10596;SDS011;5346;48.766;8.674;2023-03-08T12:18:31;2.70;;;1.60;;
10596;SDS011;5346;48.766;8.674;2023-03-08T12:26:51;3.93;;;1.53;;
10596;SDS011;5346;48.766;8.674;2023-03-08T12:29:34;2.20;;;1.53;;
10596;SDS011;5346;48.766;8.674;2023-03-08T12:32:25;1.67;;;1.47;;
10596;SDS011;5346;48.766;8.674;2023-03-08T12:35:05;1.97;;;1.57;;
10596;SDS011;5346;48.766;8.674;2023-03-08T12:40:39;1.47;;;1.30;;
10596;SDS011;5346;48.766;8.674;2023-03-08T12:48:34;1.30;;;1.20;;
10596;SDS011;5346;48.766;8.674;2023-03-08T12:56:22;2.50;;;1.00;;
10596;SDS011;5346;48.766;8.674;2023-03-08T13:01:58;1.10;;;1.00;;
10596;SDS011;5346;48.766;8.674;2023-03-08T13:07:14;2.33;;;1.13;;
10596;SDS011;5346;48.766;8.674;2023-03-08T13:10:07;1.77;;;1.23;;
10596;SDS011;5346;48.766;8.674;2023-03-08T13:16:06;1.30;;;1.17;;
10596;SDS011;5346;48.766;8.674;2023-03-08T13:18:48;1.33;;;1.13;;
10596;SDS011;5346;48.766;8.674;2023-03-08T13:21:30;2.27;;;1.50;;
10596;SDS011;5346;48.766;8.674;2023-03-08T13:29:41;1.97;;;1.63;;
10596;SDS011;5346;48.766;8.674;2023-03-08T13:32:11;2.30;;;1.60;;
10596;SDS011;5346;48.766;8.674;2023-03-08T13:34:58;1.73;;;1.33;;
10596;SDS011;5346;48.766;8.674;2023-03-08T13:37:27;1.53;;;1.43;;
10596;SDS011;5346;48.766;8.674;2023-03-08T13:40:02;1.50;;;1.40;;
10596;SDS011;5346;48.766;8.674;2023-03-08T13:43:03;1.83;;;1.50;;
10596;SDS011;5346;48.766;8.674;2023-03-08T13:45:44;1.40;;;1.30;;
10596;SDS011;5346;48.766;8.674;2023-03-08T13:48:13;1.30;;;1.10;;
10596;SDS011;5346;48.766;8.674;2023-03-08T13:50:49;1.67;;;1.57;;
10596;SDS011;5346;48.766;8.674;2023-03-08T13:53:28;1.20;;;1.10;;
10596;SDS011;5346;48.766;8.674;2023-03-08T13:56:15;1.40;;;1.10;;
10596;SDS011;5346;48.766;8.674;2023-03-08T13:58:56;2.00;;;1.20;;
10596;SDS011;5346;48.766;8.674;2023-03-08T14:01:32;1.30;;;1.20;;
10596;SDS011;5346;48.766;8.674;2023-03-08T14:04:10;1.10;;;1.00;;
10596;SDS011;5346;48.766;8.674;2023-03-08T14:06:58;2.10;;;1.30;;
10596;SDS011;5346;48.766;8.674;2023-03-08T14:09:26;1.10;;;1.00;;
10596;SDS011;5346;48.766;8.674;2023-03-08T14:12:01;1.60;;;1.20;;
10596;SDS011;5346;48.766;8.674;2023-03-08T14:14:35;1.07;;;0.93;;
10596;SDS011;5346;48.766;8.674;2023-03-08T14:17:20;0.87;;;0.87;;
10596;SDS011;5346;48.766;8.674;2023-03-08T14:20:00;1.30;;;1.20;;
10596;SDS011;5346;48.766;8.674;2023-03-08T14:22:48;3.73;;;1.10;;
10596;SDS011;5346;48.766;8.674;2023-03-08T14:25:26;1.50;;;1.20;;
10596;SDS011;5346;48.766;8.674;2023-03-08T14:28:02;1.63;;;1.00;;
10596;SDS011;5346;48.766;8.674;2023-03-08T14:30:37;1.10;;;0.80;;
10596;SDS011;5346;48.766;8.674;2023-03-08T14:33:21;1.20;;;1.10;;
10596;SDS011;5346;48.766;8.674;2023-03-08T14:36:06;1.63;;;1.00;;
10596;SDS011;5346;48.766;8.674;2023-03-08T14:38:46;3.10;;;1.00;;
10596;SDS011;5346;48.766;8.674;2023-03-08T14:41:15;0.80;;;0.80;;
10596;SDS011;5346;48.766;8.674;2023-03-08T14:43:49;0.80;;;0.80;;
10596;SDS011;5346;48.766;8.674;2023-03-08T14:46:17;1.40;;;0.70;;
10596;SDS011;5346;48.766;8.674;2023-03-08T14:48:55;0.60;;;0.60;;
10596;SDS011;5346;48.766;8.674;2023-03-08T14:51:29;0.73;;;0.63;;
10596;SDS011;5346;48.766;8.674;2023-03-08T14:54:19;0.60;;;0.60;;
10596;SDS011;5346;48.766;8.674;2023-03-08T14:57:12;0.83;;;0.67;;
10596;SDS011;5346;48.766;8.674;2023-03-08T15:00:00;1.40;;;0.63;;
10596;SDS011;5346;48.766;8.674;2023-03-08T15:02:39;1.53;;;0.60;;
10596;SDS011;5346;48.766;8.674;2023-03-08T15:05:16;0.60;;;0.60;;
10596;SDS011;5346;48.766;8.674;2023-03-08T15:07:56;1.47;;;0.70;;
10596;SDS011;5346;48.766;8.674;2023-03-08T15:10:33;0.97;;;0.60;;
10596;SDS011;5346;48.766;8.674;2023-03-08T15:13:08;0.40;;;0.40;;
10596;SDS011;5346;48.766;8.674;2023-03-08T15:15:45;0.60;;;0.50;;
10596;SDS011;5346;48.766;8.674;2023-03-08T15:18:14;1.13;;;0.70;;
10596;SDS011;5346;48.766;8.674;2023-03-08T15:20:49;1.93;;;0.50;;
10596;SDS011;5346;48.766;8.674;2023-03-08T15:23:24;1.00;;;0.60;;
10596;SDS011;5346;48.766;8.674;2023-03-08T15:26:03;1.10;;;0.63;;
10596;SDS011;5346;48.766;8.674;2023-03-08T15:28:40;0.53;;;0.53;;
10596;SDS011;5346;48.766;8.674;2023-03-08T15:31:07;1.70;;;1.10;;
10596;SDS011;5346;48.766;8.674;2023-03-08T15:33:35;3.70;;;3.03;;
10596;SDS011;5346;48.766;8.674;2023-03-08T15:36:11;2.03;;;1.70;;
10596;SDS011;5346;48.766;8.674;2023-03-08T15:38:41;1.20;;;1.00;;
10596;SDS011;5346;48.766;8.674;2023-03-08T15:41:16;3.37;;;2.07;;
10596;SDS011;5346;48.766;8.674;2023-03-08T15:43:44;1.87;;;1.50;;
10596;SDS011;5346;48.766;8.674;2023-03-08T15:46:17;1.80;;;1.60;;
10596;SDS011;5346;48.766;8.674;2023-03-08T15:48:51;6.17;;;5.57;;
10596;SDS011;5346;48.766;8.674;2023-03-08T15:51:30;10.80;;;5.77;;
10596;SDS011;5346;48.766;8.674;2023-03-08T15:53:59;3.50;;;2.90;;
10596;SDS011;5346;48.766;8.674;2023-03-08T15:56:34;1.97;;;1.57;;
10596;SDS011;5346;48.766;8.674;2023-03-08T15:59:02;2.40;;;1.30;;
10596;SDS011;5346;48.766;8.674;2023-03-08T16:01:36;2.43;;;1.40;;
10596;SDS011;5346;48.766;8.674;2023-03-08T16:04:10;0.73;;;0.73;;
10596;SDS011;5346;48.766;8.674;2023-03-08T16:06:47;1.40;;;1.27;;
10596;SDS011;5346;48.766;8.674;2023-03-08T16:09:27;2.57;;;1.10;;
10596;SDS011;5346;48.766;8.674;2023-03-08T16:12:01;1.20;;;1.10;;
10596;SDS011;5346;48.766;8.674;2023-03-08T16:14:29;3.83;;;1.10;;
10596;SDS011;5346;48.766;8.674;2023-03-08T16:17:04;2.00;;;1.03;;
10596;SDS011;5346;48.766;8.674;2023-03-08T16:19:32;1.30;;;0.83;;
10596;SDS011;5346;48.766;8.674;2023-03-08T16:22:01;1.23;;;1.10;;
10596;SDS011;5346;48.766;8.674;2023-03-08T16:24:35;0.90;;;0.90;;
10596;SDS011;5346;48.766;8.674;2023-03-08T16:27:10;0.73;;;0.73;;
10596;SDS011;5346;48.766;8.674;2023-03-08T16:29:48;1.20;;;1.00;;
10596;SDS011;5346;48.766;8.674;2023-03-08T16:32:24;2.00;;;1.07;;
10596;SDS011;5346;48.766;8.674;2023-03-08T16:34:59;2.03;;;0.90;;
10596;SDS011;5346;48.766;8.674;2023-03-08T16:37:40;0.80;;;0.73;;
10596;SDS011;5346;48.766;8.674;2023-03-08T16:40:14;2.37;;;0.70;;
10596;SDS011;5346;48.766;8.674;2023-03-08T16:42:42;0.70;;;0.70;;
10596;SDS011;5346;48.766;8.674;2023-03-08T16:45:16;0.97;;;0.83;;
10596;SDS011;5346;48.766;8.674;2023-03-08T16:47:50;0.87;;;0.70;;
10596;SDS011;5346;48.766;8.674;2023-03-08T16:50:18;1.10;;;0.60;;
10596;SDS011;5346;48.766;8.674;2023-03-08T16:52:53;0.70;;;0.63;;
10596;SDS011;5346;48.766;8.674;2023-03-08T16:55:21;0.93;;;0.60;;
10596;SDS011;5346;48.766;8.674;2023-03-08T16:57:56;2.93;;;0.60;;
10596;SDS011;5346;48.766;8.674;2023-03-08T17:00:30;0.63;;;0.57;;
10596;SDS011;5346;48.766;8.674;2023-03-08T17:02:59;0.53;;;0.53;;
10596;SDS011;5346;48.766;8.674;2023-03-08T17:05:33;1.10;;;0.60;;
10596;SDS011;5346;48.766;8.674;2023-03-08T17:08:13;0.50;;;0.40;;
10596;SDS011;5346;48.766;8.674;2023-03-08T17:10:47;1.23;;;0.70;;